sensor_id;sensor_type;location;lat;lon;timestamp;P1;durP1;ratioP1;P2;durP2;ratioP2
22565;SDS011;11449;51.330;19.378;2023-05-29T00:00:33;34.70;;;7.80;;
22565;SDS011;11449;51.330;19.378;2023-05-29T00:05:57;30.50;;;7.80;;
22565;SDS011;11449;51.330;19.378;2023-05-29T00:11:05;45.70;;;9.80;;
22565;SDS011;11449;51.330;19.378;2023-05-29T00:16:14;44.10;;;10.50;;
22565;SDS011;11449;51.330;19.378;2023-05-29T00:21:21;35.80;;;6.90;;
22565;SDS011;11449;51.330;19.378;2023-05-29T00:26:29;32.10;;;7.00;;
22565;SDS011;11449;51.330;19.378;2023-05-29T00:31:37;32.10;;;7.30;;
22565;SDS011;11449;51.330;19.378;2023-05-29T00:36:45;38.40;;;8.50;;
22565;SDS011;11449;51.330;19.378;2023-05-29T00:41:53;29.80;;;9.00;;
22565;SDS011;11449;51.330;19.378;2023-05-29T00:47:01;36.60;;;9.10;;
22565;SDS011;11449;51.330;19.378;2023-05-29T00:52:09;23.40;;;6.60;;
22565;SDS011;11449;51.330;19.378;2023-05-29T00:57:18;16.50;;;6.00;;
22565;SDS011;11449;51.330;19.378;2023-05-29T01:02:26;18.80;;;6.50;;
22565;SDS011;11449;51.330;19.378;2023-05-29T01:12:51;16.50;;;5.90;;
22565;SDS011;11449;51.330;19.378;2023-05-29T01:28:40;32.50;;;10.60;;
22565;SDS011;11449;51.330;19.378;2023-05-29T01:33:53;29.90;;;10.10;;
22565;SDS011;11449;51.330;19.378;2023-05-29T01:39:01;28.20;;;9.10;;
22565;SDS011;11449;51.330;19.378;2023-05-29T01:44:09;16.90;;;5.90;;
22565;SDS011;11449;51.330;19.378;2023-05-29T01:49:17;16.90;;;6.20;;
22565;SDS011;11449;51.330;19.378;2023-05-29T01:54:25;18.20;;;6.30;;
22565;SDS011;11449;51.330;19.378;2023-05-29T01:59:33;17.70;;;7.20;;
22565;SDS011;11449;51.330;19.378;2023-05-29T02:04:41;21.30;;;7.80;;
22565;SDS011;11449;51.330;19.378;2023-05-29T02:09:48;20.70;;;7.40;;
22565;SDS011;11449;51.330;19.378;2023-05-29T02:14:56;23.90;;;8.30;;
22565;SDS011;11449;51.330;19.378;2023-05-29T02:20:04;21.50;;;7.60;;
22565;SDS011;11449;51.330;19.378;2023-05-29T02:25:13;26.20;;;8.30;;
22565;SDS011;11449;51.330;19.378;2023-05-29T02:30:20;21.80;;;7.60;;
22565;SDS011;11449;51.330;19.378;2023-05-29T02:35:28;18.80;;;6.70;;
22565;SDS011;11449;51.330;19.378;2023-05-29T02:40:36;16.50;;;7.70;;
22565;SDS011;11449;51.330;19.378;2023-05-29T02:45:43;19.90;;;8.10;;
22565;SDS011;11449;51.330;19.378;2023-05-29T02:50:51;27.40;;;8.10;;
22565;SDS011;11449;51.330;19.378;2023-05-29T02:55:59;19.80;;;7.90;;
22565;SDS011;11449;51.330;19.378;2023-05-29T03:01:06;16.30;;;7.20;;
22565;SDS011;11449;51.330;19.378;2023-05-29T03:06:15;18.60;;;7.90;;
22565;SDS011;11449;51.330;19.378;2023-05-29T03:11:25;11.60;;;7.20;;
22565;SDS011;11449;51.330;19.378;2023-05-29T03:16:32;15.50;;;6.80;;
22565;SDS011;11449;51.330;19.378;2023-05-29T03:21:41;17.80;;;6.70;;
22565;SDS011;11449;51.330;19.378;2023-05-29T03:26:49;23.20;;;6.80;;
22565;SDS011;11449;51.330;19.378;2023-05-29T03:31:58;34.40;;;7.70;;
22565;SDS011;11449;51.330;19.378;2023-05-29T03:37:07;35.60;;;9.10;;
22565;SDS011;11449;51.330;19.378;2023-05-29T03:42:15;45.60;;;9.20;;
22565;SDS011;11449;51.330;19.378;2023-05-29T03:47:24;46.00;;;10.00;;
22565;SDS011;11449;51.330;19.378;2023-05-29T03:52:32;35.80;;;10.00;;
22565;SDS011;11449;51.330;19.378;2023-05-29T03:57:40;32.10;;;10.30;;
22565;SDS011;11449;51.330;19.378;2023-05-29T04:02:48;10.50;;;8.90;;
22565;SDS011;11449;51.330;19.378;2023-05-29T04:07:56;15.70;;;7.60;;
22565;SDS011;11449;51.330;19.378;2023-05-29T04:13:04;12.50;;;6.00;;
22565;SDS011;11449;51.330;19.378;2023-05-29T04:18:13;13.40;;;6.00;;
22565;SDS011;11449;51.330;19.378;2023-05-29T04:23:21;9.40;;;5.50;;
22565;SDS011;11449;51.330;19.378;2023-05-29T04:28:29;9.80;;;5.10;;
22565;SDS011;11449;51.330;19.378;2023-05-29T04:33:37;13.20;;;6.90;;
22565;SDS011;11449;51.330;19.378;2023-05-29T04:38:46;14.80;;;6.90;;
22565;SDS011;11449;51.330;19.378;2023-05-29T04:43:55;24.70;;;8.60;;
22565;SDS011;11449;51.330;19.378;2023-05-29T04:49:11;25.40;;;8.20;;
22565;SDS011;11449;51.330;19.378;2023-05-29T04:54:21;29.50;;;7.60;;
22565;SDS011;11449;51.330;19.378;2023-05-29T04:59:30;15.90;;;6.90;;
22565;SDS011;11449;51.330;19.378;2023-05-29T05:04:38;16.60;;;6.90;;
22565;SDS011;11449;51.330;19.378;2023-05-29T05:09:47;28.00;;;7.50;;
22565;SDS011;11449;51.330;19.378;2023-05-29T05:14:58;31.20;;;7.80;;
22565;SDS011;11449;51.330;19.378;2023-05-29T05:20:08;11.90;;;5.80;;
22565;SDS011;11449;51.330;19.378;2023-05-29T05:25:16;7.40;;;4.70;;
22565;SDS011;11449;51.330;19.378;2023-05-29T05:36:21;12.60;;;6.10;;
22565;SDS011;11449;51.330;19.378;2023-05-29T05:41:32;9.10;;;4.90;;
22565;SDS011;11449;51.330;19.378;2023-05-29T05:46:41;7.10;;;3.70;;
22565;SDS011;11449;51.330;19.378;2023-05-29T05:51:50;7.00;;;3.50;;
22565;SDS011;11449;51.330;19.378;2023-05-29T05:56:59;16.30;;;4.90;;
22565;SDS011;11449;51.330;19.378;2023-05-29T06:02:09;10.50;;;4.20;;
22565;SDS011;11449;51.330;19.378;2023-05-29T06:07:16;12.70;;;4.90;;
22565;SDS011;11449;51.330;19.378;2023-05-29T06:12:24;10.00;;;4.10;;
22565;SDS011;11449;51.330;19.378;2023-05-29T06:17:40;40.20;;;7.10;;
22565;SDS011;11449;51.330;19.378;2023-05-29T06:22:50;33.90;;;5.60;;
22565;SDS011;11449;51.330;19.378;2023-05-29T06:27:59;5.30;;;3.00;;
22565;SDS011;11449;51.330;19.378;2023-05-29T06:33:07;31.80;;;5.40;;
22565;SDS011;11449;51.330;19.378;2023-05-29T06:38:15;6.30;;;2.80;;
22565;SDS011;11449;51.330;19.378;2023-05-29T06:43:23;5.20;;;2.20;;
22565;SDS011;11449;51.330;19.378;2023-05-29T06:48:33;29.20;;;5.00;;
22565;SDS011;11449;51.330;19.378;2023-05-29T06:53:41;5.00;;;2.10;;
22565;SDS011;11449;51.330;19.378;2023-05-29T06:58:49;8.40;;;3.30;;
22565;SDS011;11449;51.330;19.378;2023-05-29T07:03:57;5.60;;;2.90;;
22565;SDS011;11449;51.330;19.378;2023-05-29T07:09:05;5.40;;;2.30;;
22565;SDS011;11449;51.330;19.378;2023-05-29T07:14:13;19.50;;;3.90;;
22565;SDS011;11449;51.330;19.378;2023-05-29T07:19:21;4.50;;;2.00;;
22565;SDS011;11449;51.330;19.378;2023-05-29T07:24:29;4.90;;;2.50;;
22565;SDS011;11449;51.330;19.378;2023-05-29T07:29:38;4.70;;;2.30;;
22565;SDS011;11449;51.330;19.378;2023-05-29T07:34:47;5.70;;;1.90;;
22565;SDS011;11449;51.330;19.378;2023-05-29T07:39:57;20.00;;;3.90;;
22565;SDS011;11449;51.330;19.378;2023-05-29T07:45:26;6.50;;;2.10;;
22565;SDS011;11449;51.330;19.378;2023-05-29T07:50:34;10.60;;;3.00;;
22565;SDS011;11449;51.330;19.378;2023-05-29T07:55:43;5.70;;;1.60;;
22565;SDS011;11449;51.330;19.378;2023-05-29T08:00:51;3.90;;;1.70;;
22565;SDS011;11449;51.330;19.378;2023-05-29T08:05:58;3.00;;;1.30;;
22565;SDS011;11449;51.330;19.378;2023-05-29T08:11:06;3.30;;;1.40;;
22565;SDS011;11449;51.330;19.378;2023-05-29T08:16:15;2.80;;;1.50;;
22565;SDS011;11449;51.330;19.378;2023-05-29T08:21:25;5.90;;;1.90;;
22565;SDS011;11449;51.330;19.378;2023-05-29T08:26:33;5.80;;;1.70;;
22565;SDS011;11449;51.330;19.378;2023-05-29T08:31:41;7.80;;;1.80;;
22565;SDS011;11449;51.330;19.378;2023-05-29T08:36:49;4.00;;;1.40;;
22565;SDS011;11449;51.330;19.378;2023-05-29T08:41:59;6.90;;;2.20;;
22565;SDS011;11449;51.330;19.378;2023-05-29T08:47:08;5.40;;;1.90;;
22565;SDS011;11449;51.330;19.378;2023-05-29T08:52:19;5.70;;;2.20;;
22565;SDS011;11449;51.330;19.378;2023-05-29T08:57:30;2.90;;;2.20;;
22565;SDS011;11449;51.330;19.378;2023-05-29T09:02:41;4.30;;;2.90;;
22565;SDS011;11449;51.330;19.378;2023-05-29T09:07:53;4.10;;;2.00;;
22565;SDS011;11449;51.330;19.378;2023-05-29T09:13:01;4.00;;;2.30;;
22565;SDS011;11449;51.330;19.378;2023-05-29T09:18:09;6.80;;;2.20;;
22565;SDS011;11449;51.330;19.378;2023-05-29T09:23:17;5.60;;;2.80;;
22565;SDS011;11449;51.330;19.378;2023-05-29T09:28:26;13.40;;;3.90;;
22565;SDS011;11449;51.330;19.378;2023-05-29T09:33:46;15.90;;;4.90;;
22565;SDS011;11449;51.330;19.378;2023-05-29T09:38:49;10.10;;;3.90;;
22565;SDS011;11449;51.330;19.378;2023-05-29T09:43:59;13.50;;;4.20;;
22565;SDS011;11449;51.330;19.378;2023-05-29T09:49:14;34.60;;;5.40;;
22565;SDS011;11449;51.330;19.378;2023-05-29T09:54:24;37.40;;;6.20;;
22565;SDS011;11449;51.330;19.378;2023-05-29T09:59:36;50.30;;;8.10;;
22565;SDS011;11449;51.330;19.378;2023-05-29T10:04:44;45.10;;;6.90;;
22565;SDS011;11449;51.330;19.378;2023-05-29T10:09:53;9.60;;;3.30;;
22565;SDS011;11449;51.330;19.378;2023-05-29T10:15:03;8.30;;;3.20;;
22565;SDS011;11449;51.330;19.378;2023-05-29T10:20:12;10.20;;;3.60;;
22565;SDS011;11449;51.330;19.378;2023-05-29T10:25:23;13.00;;;4.30;;
22565;SDS011;11449;51.330;19.378;2023-05-29T10:30:50;43.70;;;6.10;;
22565;SDS011;11449;51.330;19.378;2023-05-29T10:36:03;44.90;;;6.90;;
22565;SDS011;11449;51.330;19.378;2023-05-29T10:51:56;21.40;;;3.70;;
22565;SDS011;11449;51.330;19.378;2023-05-29T10:57:04;14.00;;;3.90;;
22565;SDS011;11449;51.330;19.378;2023-05-29T11:02:17;12.60;;;3.30;;
22565;SDS011;11449;51.330;19.378;2023-05-29T11:12:33;16.10;;;4.40;;
22565;SDS011;11449;51.330;19.378;2023-05-29T11:17:43;12.60;;;3.60;;
22565;SDS011;11449;51.330;19.378;2023-05-29T11:28:07;12.10;;;3.30;;
22565;SDS011;11449;51.330;19.378;2023-05-29T11:38:29;15.50;;;3.90;;
22565;SDS011;11449;51.330;19.378;2023-05-29T11:43:37;13.90;;;4.20;;
22565;SDS011;11449;51.330;19.378;2023-05-29T11:48:47;17.30;;;4.00;;
22565;SDS011;11449;51.330;19.378;2023-05-29T11:53:56;15.40;;;3.80;;
22565;SDS011;11449;51.330;19.378;2023-05-29T11:59:10;13.30;;;4.10;;
22565;SDS011;11449;51.330;19.378;2023-05-29T12:04:18;11.80;;;4.10;;
22565;SDS011;11449;51.330;19.378;2023-05-29T12:09:26;15.30;;;5.50;;
22565;SDS011;11449;51.330;19.378;2023-05-29T12:14:34;11.90;;;3.80;;
22565;SDS011;11449;51.330;19.378;2023-05-29T12:19:42;16.00;;;4.60;;
22565;SDS011;11449;51.330;19.378;2023-05-29T12:24:49;16.40;;;4.50;;
22565;SDS011;11449;51.330;19.378;2023-05-29T12:30:00;21.20;;;4.10;;
22565;SDS011;11449;51.330;19.378;2023-05-29T12:35:13;20.90;;;3.90;;
22565;SDS011;11449;51.330;19.378;2023-05-29T12:40:22;31.30;;;5.20;;
22565;SDS011;11449;51.330;19.378;2023-05-29T12:45:31;22.50;;;4.40;;
22565;SDS011;11449;51.330;19.378;2023-05-29T12:50:40;17.50;;;6.20;;
22565;SDS011;11449;51.330;19.378;2023-05-29T12:55:48;39.50;;;6.40;;
22565;SDS011;11449;51.330;19.378;2023-05-29T13:00:56;83.30;;;20.60;;
22565;SDS011;11449;51.330;19.378;2023-05-29T13:06:04;67.30;;;9.50;;
22565;SDS011;11449;51.330;19.378;2023-05-29T13:11:12;49.70;;;5.60;;
22565;SDS011;11449;51.330;19.378;2023-05-29T13:16:20;54.70;;;6.40;;
22565;SDS011;11449;51.330;19.378;2023-05-29T13:21:28;55.50;;;7.50;;
22565;SDS011;11449;51.330;19.378;2023-05-29T13:26:35;55.60;;;6.00;;
22565;SDS011;11449;51.330;19.378;2023-05-29T13:31:43;78.20;;;8.30;;
22565;SDS011;11449;51.330;19.378;2023-05-29T13:36:51;37.40;;;4.70;;
22565;SDS011;11449;51.330;19.378;2023-05-29T13:41:58;51.50;;;8.10;;
22565;SDS011;11449;51.330;19.378;2023-05-29T13:47:06;46.10;;;5.80;;
22565;SDS011;11449;51.330;19.378;2023-05-29T13:52:17;37.70;;;5.60;;
22565;SDS011;11449;51.330;19.378;2023-05-29T13:57:25;43.00;;;6.80;;
22565;SDS011;11449;51.330;19.378;2023-05-29T14:02:32;57.70;;;7.50;;
22565;SDS011;11449;51.330;19.378;2023-05-29T14:07:41;96.00;;;10.80;;
22565;SDS011;11449;51.330;19.378;2023-05-29T14:12:49;72.20;;;7.90;;
22565;SDS011;11449;51.330;19.378;2023-05-29T14:17:57;60.50;;;8.80;;
22565;SDS011;11449;51.330;19.378;2023-05-29T14:23:04;58.60;;;7.30;;
22565;SDS011;11449;51.330;19.378;2023-05-29T14:28:12;55.60;;;6.30;;
22565;SDS011;11449;51.330;19.378;2023-05-29T14:33:20;43.80;;;5.60;;
22565;SDS011;11449;51.330;19.378;2023-05-29T14:38:28;58.90;;;6.40;;
22565;SDS011;11449;51.330;19.378;2023-05-29T14:43:37;49.30;;;6.10;;
22565;SDS011;11449;51.330;19.378;2023-05-29T14:48:45;44.60;;;6.00;;
22565;SDS011;11449;51.330;19.378;2023-05-29T14:53:56;39.60;;;5.10;;
22565;SDS011;11449;51.330;19.378;2023-05-29T14:59:04;66.80;;;9.10;;
22565;SDS011;11449;51.330;19.378;2023-05-29T15:04:12;58.40;;;8.90;;
22565;SDS011;11449;51.330;19.378;2023-05-29T15:09:19;66.20;;;9.60;;
22565;SDS011;11449;51.330;19.378;2023-05-29T15:14:28;69.30;;;9.30;;
22565;SDS011;11449;51.330;19.378;2023-05-29T15:19:36;79.70;;;11.70;;
22565;SDS011;11449;51.330;19.378;2023-05-29T15:24:43;65.70;;;9.80;;
22565;SDS011;11449;51.330;19.378;2023-05-29T15:29:51;55.20;;;8.60;;
22565;SDS011;11449;51.330;19.378;2023-05-29T15:34:59;50.20;;;6.20;;
22565;SDS011;11449;51.330;19.378;2023-05-29T15:40:07;48.90;;;5.40;;
22565;SDS011;11449;51.330;19.378;2023-05-29T15:45:16;76.10;;;8.80;;
22565;SDS011;11449;51.330;19.378;2023-05-29T15:50:24;74.40;;;8.30;;
22565;SDS011;11449;51.330;19.378;2023-05-29T15:55:32;49.60;;;6.20;;
22565;SDS011;11449;51.330;19.378;2023-05-29T16:00:39;53.20;;;7.90;;
22565;SDS011;11449;51.330;19.378;2023-05-29T16:05:47;41.60;;;6.90;;
22565;SDS011;11449;51.330;19.378;2023-05-29T16:10:55;60.40;;;9.10;;
22565;SDS011;11449;51.330;19.378;2023-05-29T16:16:03;62.60;;;9.40;;
22565;SDS011;11449;51.330;19.378;2023-05-29T16:21:11;66.40;;;9.20;;
22565;SDS011;11449;51.330;19.378;2023-05-29T16:26:19;56.40;;;8.40;;
22565;SDS011;11449;51.330;19.378;2023-05-29T16:31:28;83.30;;;10.50;;
22565;SDS011;11449;51.330;19.378;2023-05-29T16:36:35;57.40;;;8.30;;
22565;SDS011;11449;51.330;19.378;2023-05-29T16:41:44;74.10;;;10.20;;
22565;SDS011;11449;51.330;19.378;2023-05-29T16:46:52;90.60;;;11.90;;
22565;SDS011;11449;51.330;19.378;2023-05-29T16:52:00;94.80;;;11.80;;
22565;SDS011;11449;51.330;19.378;2023-05-29T16:57:08;72.90;;;9.40;;
22565;SDS011;11449;51.330;19.378;2023-05-29T17:02:16;90.00;;;12.00;;
22565;SDS011;11449;51.330;19.378;2023-05-29T17:07:24;61.10;;;9.10;;
22565;SDS011;11449;51.330;19.378;2023-05-29T17:12:33;58.50;;;8.90;;
22565;SDS011;11449;51.330;19.378;2023-05-29T17:17:40;84.70;;;11.30;;
22565;SDS011;11449;51.330;19.378;2023-05-29T17:22:48;85.60;;;11.80;;
22565;SDS011;11449;51.330;19.378;2023-05-29T17:27:57;81.70;;;11.50;;
22565;SDS011;11449;51.330;19.378;2023-05-29T17:33:06;65.40;;;9.90;;
22565;SDS011;11449;51.330;19.378;2023-05-29T17:38:14;69.50;;;10.70;;
22565;SDS011;11449;51.330;19.378;2023-05-29T17:43:22;54.70;;;8.80;;
22565;SDS011;11449;51.330;19.378;2023-05-29T17:48:30;58.80;;;11.50;;
22565;SDS011;11449;51.330;19.378;2023-05-29T17:53:39;54.00;;;11.20;;
22565;SDS011;11449;51.330;19.378;2023-05-29T17:58:47;52.40;;;10.20;;
22565;SDS011;11449;51.330;19.378;2023-05-29T18:03:56;57.90;;;10.60;;
22565;SDS011;11449;51.330;19.378;2023-05-29T18:09:05;60.60;;;10.50;;
22565;SDS011;11449;51.330;19.378;2023-05-29T18:14:13;52.50;;;10.10;;
22565;SDS011;11449;51.330;19.378;2023-05-29T18:19:21;46.60;;;8.40;;
22565;SDS011;11449;51.330;19.378;2023-05-29T18:24:29;47.40;;;9.60;;
22565;SDS011;11449;51.330;19.378;2023-05-29T18:29:37;66.60;;;13.30;;
22565;SDS011;11449;51.330;19.378;2023-05-29T18:34:44;68.80;;;13.60;;
22565;SDS011;11449;51.330;19.378;2023-05-29T18:39:52;72.30;;;13.30;;
22565;SDS011;11449;51.330;19.378;2023-05-29T18:44:55;83.20;;;14.30;;
22565;SDS011;11449;51.330;19.378;2023-05-29T18:50:04;76.70;;;13.10;;
22565;SDS011;11449;51.330;19.378;2023-05-29T18:55:12;94.30;;;17.70;;
22565;SDS011;11449;51.330;19.378;2023-05-29T19:00:20;100.80;;;20.20;;
22565;SDS011;11449;51.330;19.378;2023-05-29T19:05:27;87.50;;;17.50;;
22565;SDS011;11449;51.330;19.378;2023-05-29T19:10:36;77.80;;;15.00;;
22565;SDS011;11449;51.330;19.378;2023-05-29T19:15:45;60.50;;;11.90;;
22565;SDS011;11449;51.330;19.378;2023-05-29T19:20:53;40.70;;;10.10;;
22565;SDS011;11449;51.330;19.378;2023-05-29T19:26:00;47.70;;;12.40;;
22565;SDS011;11449;51.330;19.378;2023-05-29T19:31:08;43.80;;;10.00;;
22565;SDS011;11449;51.330;19.378;2023-05-29T19:36:16;49.50;;;13.10;;
22565;SDS011;11449;51.330;19.378;2023-05-29T19:41:24;60.70;;;14.40;;
22565;SDS011;11449;51.330;19.378;2023-05-29T19:46:32;71.50;;;17.00;;
22565;SDS011;11449;51.330;19.378;2023-05-29T19:51:40;83.10;;;13.20;;
22565;SDS011;11449;51.330;19.378;2023-05-29T19:56:48;65.60;;;12.60;;
22565;SDS011;11449;51.330;19.378;2023-05-29T20:01:56;69.00;;;12.30;;
22565;SDS011;11449;51.330;19.378;2023-05-29T20:07:06;58.00;;;10.30;;
22565;SDS011;11449;51.330;19.378;2023-05-29T20:12:13;57.40;;;8.60;;
22565;SDS011;11449;51.330;19.378;2023-05-29T20:17:21;72.40;;;9.60;;
22565;SDS011;11449;51.330;19.378;2023-05-29T20:22:30;72.40;;;10.80;;
22565;SDS011;11449;51.330;19.378;2023-05-29T20:27:38;62.80;;;9.10;;
22565;SDS011;11449;51.330;19.378;2023-05-29T20:32:45;58.90;;;9.60;;
22565;SDS011;11449;51.330;19.378;2023-05-29T20:37:53;42.90;;;7.90;;
22565;SDS011;11449;51.330;19.378;2023-05-29T20:42:56;69.00;;;10.00;;
22565;SDS011;11449;51.330;19.378;2023-05-29T20:48:05;59.70;;;9.50;;
22565;SDS011;11449;51.330;19.378;2023-05-29T20:53:13;62.10;;;11.80;;
22565;SDS011;11449;51.330;19.378;2023-05-29T20:58:21;58.50;;;12.40;;
22565;SDS011;11449;51.330;19.378;2023-05-29T21:03:28;65.10;;;11.70;;
22565;SDS011;11449;51.330;19.378;2023-05-29T21:08:37;68.50;;;11.70;;
22565;SDS011;11449;51.330;19.378;2023-05-29T21:13:46;67.00;;;12.30;;
22565;SDS011;11449;51.330;19.378;2023-05-29T21:18:53;98.50;;;15.20;;
22565;SDS011;11449;51.330;19.378;2023-05-29T21:24:01;69.40;;;12.60;;
22565;SDS011;11449;51.330;19.378;2023-05-29T21:29:14;83.70;;;13.70;;
22565;SDS011;11449;51.330;19.378;2023-05-29T21:34:22;55.00;;;10.50;;
22565;SDS011;11449;51.330;19.378;2023-05-29T21:39:31;58.90;;;13.10;;
22565;SDS011;11449;51.330;19.378;2023-05-29T21:44:39;41.60;;;10.20;;
22565;SDS011;11449;51.330;19.378;2023-05-29T21:49:47;58.90;;;12.30;;
22565;SDS011;11449;51.330;19.378;2023-05-29T21:54:56;44.10;;;10.50;;
22565;SDS011;11449;51.330;19.378;2023-05-29T22:00:05;41.50;;;9.70;;
22565;SDS011;11449;51.330;19.378;2023-05-29T22:05:16;40.40;;;9.40;;
22565;SDS011;11449;51.330;19.378;2023-05-29T22:10:24;44.70;;;9.30;;
22565;SDS011;11449;51.330;19.378;2023-05-29T22:15:32;43.40;;;9.70;;
22565;SDS011;11449;51.330;19.378;2023-05-29T22:20:39;33.40;;;8.20;;
22565;SDS011;11449;51.330;19.378;2023-05-29T22:25:47;32.40;;;8.30;;
22565;SDS011;11449;51.330;19.378;2023-05-29T22:30:56;32.40;;;11.30;;
22565;SDS011;11449;51.330;19.378;2023-05-29T22:36:04;30.00;;;9.90;;
22565;SDS011;11449;51.330;19.378;2023-05-29T22:41:13;51.70;;;20.60;;
22565;SDS011;11449;51.330;19.378;2023-05-29T22:46:21;39.10;;;18.30;;
22565;SDS011;11449;51.330;19.378;2023-05-29T22:51:30;33.70;;;13.40;;
22565;SDS011;11449;51.330;19.378;2023-05-29T22:56:39;31.80;;;10.60;;
22565;SDS011;11449;51.330;19.378;2023-05-29T23:01:47;32.80;;;11.40;;
22565;SDS011;11449;51.330;19.378;2023-05-29T23:06:59;27.80;;;9.50;;
22565;SDS011;11449;51.330;19.378;2023-05-29T23:12:06;37.70;;;11.10;;
22565;SDS011;11449;51.330;19.378;2023-05-29T23:17:16;35.30;;;11.50;;
22565;SDS011;11449;51.330;19.378;2023-05-29T23:22:24;29.90;;;9.70;;
22565;SDS011;11449;51.330;19.378;2023-05-29T23:27:32;38.90;;;10.40;;
22565;SDS011;11449;51.330;19.378;2023-05-29T23:32:40;35.80;;;9.80;;
22565;SDS011;11449;51.330;19.378;2023-05-29T23:37:48;71.90;;;13.20;;
22565;SDS011;11449;51.330;19.378;2023-05-29T23:42:57;76.40;;;13.90;;
22565;SDS011;11449;51.330;19.378;2023-05-29T23:48:05;68.80;;;13.20;;
22565;SDS011;11449;51.330;19.378;2023-05-29T23:53:13;68.00;;;13.60;;
22565;SDS011;11449;51.330;19.378;2023-05-29T23:58:20;60.70;;;13.40;;
